Legend — WDF9316 — position and weather

sailwx.info

Track history (hours):
 
Tides and Currents Weather Stations Pressure Air Temp Water Temp Dewpoint Dewpoint Depression Visibility Wind Speed Wind Dir Waves Ship Positions

Legend

Owner: Crowley Maritime, Seattle, WA. More information available from US FCC via Universal Licensing System and Coast Guard Vessel Documentation Center.

Last reported at 2015-Aug-25 01:32 UTC. Time now 2015-Sep-02 02:27 UTC.
Position N 25°18' W 080°04'.
Warning: this ship's position is 8 days out of date.

Length 212 m; draft 7.7 m.

Type: Tow > 200 m length. MMSI: 366709000.

Date/timePositionNaut miles runAvg speedWind from/ knotsBaromVisibWave heightAir tempDewpointWater temp
2015-Aug-25 01:32N 25°18' W 080°04'1111.1
2015-Aug-25 00:33N 25°28' W 080°01'1010.3
2015-Aug-24 23:33N 25°39' W 080°01'10 9.7
2015-Aug-24 22:33N 25°48' W 080°01'9 9.3
2015-Aug-24 21:33N 25°58' W 080°01'9 8.9
2015-Aug-24 20:33N 26°06' W 080°05'2 1.7
2015-Aug-24 19:29N 26°06' W 080°07'0 0.0
2015-Aug-24 18:32N 26°06' W 080°07'0 0.0
2015-Aug-24 17:32N 26°06' W 080°07'0 0.0
2015-Aug-24 16:32N 26°06' W 080°07'0 0.0
2015-Aug-24 15:32N 26°06' W 080°07'0 0.0
2015-Aug-24 14:23N 26°06' W 080°07'0 0.0
2015-Aug-24 13:32N 26°06' W 080°07'0 0.0
2015-Aug-24 12:26N 26°06' W 080°07'0 0.0
2015-Aug-24 11:32N 26°06' W 080°07'0 0.0
2015-Aug-24 10:29N 26°06' W 080°07'0 0.0
2015-Aug-24 09:29N 26°06' W 080°07'0 0.0
2015-Aug-24 08:29N 26°06' W 080°07'0 0.0
2015-Aug-24 07:32N 26°06' W 080°07'0 0.0
2015-Aug-24 06:32N 26°06' W 080°07'0 0.0
2015-Aug-24 05:32N 26°06' W 080°07'0 0.0
2015-Aug-24 04:29N 26°06' W 080°07'0 0.0
2015-Aug-24 03:32N 26°06' W 080°07'0 0.0
2015-Aug-24 02:32N 26°06' W 080°07'0 0.0
2015-Aug-24 01:32N 26°06' W 080°07'0 0.0
2015-Aug-24 00:23N 26°06' W 080°07'0 0.0
2015-Aug-23 23:23N 26°06' W 080°07'0 0.0
2015-Aug-23 22:26N 26°06' W 080°07'0 0.0
2015-Aug-23 21:26N 26°06' W 080°07'0 0.0
2015-Aug-23 20:29N 26°06' W 080°07'0 0.0
2015-Aug-23 19:29N 26°06' W 080°07'0 0.0
2015-Aug-23 18:29N 26°06' W 080°07'0 0.0
2015-Aug-23 17:29N 26°06' W 080°07'0 0.0
2015-Aug-23 16:29N 26°06' W 080°07'0 0.0
2015-Aug-23 15:32N 26°06' W 080°07'0 0.0
2015-Aug-23 14:32N 26°06' W 080°07'0 0.0
2015-Aug-23 13:32N 26°06' W 080°07'0 0.0
2015-Aug-23 12:32N 26°06' W 080°07'0 0.0
2015-Aug-23 11:32N 26°06' W 080°07'0 0.0
2015-Aug-23 10:32N 26°06' W 080°07'0 0.0
2015-Aug-23 09:23N 26°06' W 080°07'0 0.0
2015-Aug-23 08:26N 26°06' W 080°07'0 0.0
2015-Aug-23 07:26N 26°06' W 080°07'0 0.1
2015-Aug-23 06:26N 26°06' W 080°07'4 4.6
2015-Aug-23 05:33N 26°06' W 080°03'1414.5
2015-Aug-23 04:33N 25°52' W 079°60'1515.5
2015-Aug-23 03:33N 25°36' W 079°59'  
2015-Aug-19 08:29N 29°56' W 090°08'6 6.4
2015-Aug-19 07:33N 29°57' W 090°02'  
Track history (hours):
 
Tides and Currents Weather Stations Pressure Air Temp Water Temp Dewpoint Dewpoint Depression Visibility Wind Speed Wind Dir Waves Ship Positions

Legend

Owner: Crowley Maritime, Seattle, WA. More information available from US FCC via Universal Licensing System and Coast Guard Vessel Documentation Center.

Last reported at 2015-Aug-25 01:32 UTC. Time now 2015-Sep-02 02:27 UTC.
Position N 25°18' W 080°04'.
Warning: this ship's position is 8 days out of date.

Length 212 m; draft 7.7 m.

Type: Tow > 200 m length. MMSI: 366709000.

Date/timePositionNaut miles runAvg speedWind from/ knotsBaromVisibWave heightAir tempDewpointWater temp
2015-Aug-25 01:32N 25°18' W 080°04'1111.1
2015-Aug-25 00:33N 25°28' W 080°01'1010.3
2015-Aug-24 23:33N 25°39' W 080°01'10 9.7
2015-Aug-24 22:33N 25°48' W 080°01'9 9.3
2015-Aug-24 21:33N 25°58' W 080°01'9 8.9
2015-Aug-24 20:33N 26°06' W 080°05'2 1.7
2015-Aug-24 19:29N 26°06' W 080°07'0 0.0
2015-Aug-24 18:32N 26°06' W 080°07'0 0.0
2015-Aug-24 17:32N 26°06' W 080°07'0 0.0
2015-Aug-24 16:32N 26°06' W 080°07'0 0.0
2015-Aug-24 15:32N 26°06' W 080°07'0 0.0
2015-Aug-24 14:23N 26°06' W 080°07'0 0.0
2015-Aug-24 13:32N 26°06' W 080°07'0 0.0
2015-Aug-24 12:26N 26°06' W 080°07'0 0.0
2015-Aug-24 11:32N 26°06' W 080°07'0 0.0
2015-Aug-24 10:29N 26°06' W 080°07'0 0.0
2015-Aug-24 09:29N 26°06' W 080°07'0 0.0
2015-Aug-24 08:29N 26°06' W 080°07'0 0.0
2015-Aug-24 07:32N 26°06' W 080°07'0 0.0
2015-Aug-24 06:32N 26°06' W 080°07'0 0.0
2015-Aug-24 05:32N 26°06' W 080°07'0 0.0
2015-Aug-24 04:29N 26°06' W 080°07'0 0.0
2015-Aug-24 03:32N 26°06' W 080°07'0 0.0
2015-Aug-24 02:32N 26°06' W 080°07'0 0.0
2015-Aug-24 01:32N 26°06' W 080°07'0 0.0
2015-Aug-24 00:23N 26°06' W 080°07'0 0.0
2015-Aug-23 23:23N 26°06' W 080°07'0 0.0
2015-Aug-23 22:26N 26°06' W 080°07'0 0.0
2015-Aug-23 21:26N 26°06' W 080°07'0 0.0
2015-Aug-23 20:29N 26°06' W 080°07'0 0.0
2015-Aug-23 19:29N 26°06' W 080°07'0 0.0
2015-Aug-23 18:29N 26°06' W 080°07'0 0.0
2015-Aug-23 17:29N 26°06' W 080°07'0 0.0
2015-Aug-23 16:29N 26°06' W 080°07'0 0.0
2015-Aug-23 15:32N 26°06' W 080°07'0 0.0
2015-Aug-23 14:32N 26°06' W 080°07'0 0.0
2015-Aug-23 13:32N 26°06' W 080°07'0 0.0
2015-Aug-23 12:32N 26°06' W 080°07'0 0.0
2015-Aug-23 11:32N 26°06' W 080°07'0 0.0
2015-Aug-23 10:32N 26°06' W 080°07'0 0.0
2015-Aug-23 09:23N 26°06' W 080°07'0 0.0
2015-Aug-23 08:26N 26°06' W 080°07'0 0.0
2015-Aug-23 07:26N 26°06' W 080°07'0 0.1
2015-Aug-23 06:26N 26°06' W 080°07'4 4.6
2015-Aug-23 05:33N 26°06' W 080°03'1414.5
2015-Aug-23 04:33N 25°52' W 079°60'1515.5
2015-Aug-23 03:33N 25°36' W 079°59'  
2015-Aug-19 08:29N 29°56' W 090°08'6 6.4
2015-Aug-19 07:33N 29°57' W 090°02'  

Dump ship's entire track history